createdAt,value
2016-10-29T00:01:06.172Z,14.11
2016-10-29T00:02:19.179Z,14.12
2016-10-29T00:03:32.140Z,14.09
2016-10-29T00:04:44.657Z,13.97
2016-10-29T00:05:57.709Z,14.03
2016-10-29T00:07:10.751Z,14.09
2016-10-29T00:08:23.779Z,14
2016-10-29T00:09:35.746Z,14.05
2016-10-29T00:10:48.288Z,14
2016-10-29T00:12:01.276Z,13.9
2016-10-29T00:13:14.320Z,13.93
2016-10-29T00:14:27.335Z,13.88
2016-10-29T00:15:40.311Z,13.91
2016-10-29T00:16:53.923Z,13.86
2016-10-29T00:18:06.474Z,13.96
2016-10-29T00:19:18.519Z,13.9
2016-10-29T00:20:31.622Z,13.9
2016-10-29T00:21:45.135Z,13.86
2016-10-29T00:23:29.789Z,13.86
2016-10-29T00:24:43.289Z,13.8
2016-10-29T00:25:56.816Z,13.85
2016-10-29T00:27:09.510Z,13.85
2016-10-29T00:28:23.049Z,13.82
2016-10-29T00:29:35.451Z,13.76
2016-10-29T00:30:48.961Z,13.83
2016-10-29T00:32:33.028Z,13.82
2016-10-29T00:33:46.538Z,13.75
2016-10-29T00:34:59.575Z,13.83
2016-10-29T00:36:12.027Z,13.83
2016-10-29T00:37:24.998Z,13.78
2016-10-29T00:38:36.949Z,13.83
2016-10-29T00:39:50.438Z,13.8
2016-10-29T00:41:03.929Z,13.82
2016-10-29T00:42:16.957Z,13.82
2016-10-29T00:43:30.391Z,13.78
2016-10-29T00:44:43.385Z,13.83
2016-10-29T00:45:56.900Z,13.82
2016-10-29T00:47:09.883Z,13.76
2016-10-29T00:48:22.811Z,13.76
2016-10-29T00:49:35.803Z,13.83
2016-10-29T00:50:48.824Z,13.72
2016-10-29T00:52:00.771Z,13.67
2016-10-29T00:53:14.263Z,13.65
2016-10-29T00:54:27.246Z,13.72
2016-10-29T00:55:40.257Z,13.82
2016-10-29T00:56:53.331Z,13.79
2016-10-29T00:58:06.298Z,13.86
2016-10-29T00:59:19.309Z,13.85
2016-10-29T01:00:32.868Z,13.85
2016-10-29T01:01:46.367Z,13.76
2016-10-29T01:02:59.916Z,13.75
2016-10-29T01:04:12.914Z,13.72
2016-10-29T01:05:26.588Z,13.72
2016-10-29T01:06:38.574Z,13.82
2016-10-29T01:07:51.005Z,13.82
2016-10-29T01:09:03.996Z,13.83
2016-10-29T01:10:16.970Z,13.71
2016-10-29T01:11:30.530Z,13.72
2016-10-29T01:12:41.915Z,13.75
2016-10-29T01:13:54.893Z,13.79
2016-10-29T01:15:08.408Z,13.75
2016-10-29T01:16:21.897Z,13.79
2016-10-29T01:17:33.810Z,13.82
2016-10-29T01:18:47.365Z,13.79
2016-10-29T01:19:59.838Z,13.83
2016-10-29T01:21:12.890Z,13.88
2016-10-29T01:22:26.378Z,13.79
2016-10-29T01:23:39.861Z,13.85
2016-10-29T01:24:52.898Z,13.85
2016-10-29T01:26:06.423Z,13.82
2016-10-29T01:27:19.380Z,13.79
2016-10-29T01:28:32.350Z,13.85
2016-10-29T01:29:45.400Z,13.83
2016-10-29T01:30:58.956Z,13.85
2016-10-29T01:32:12.473Z,13.83
2016-10-29T01:33:25.466Z,13.8
2016-10-29T01:34:39.039Z,13.78
2016-10-29T01:35:51.539Z,13.85
2016-10-29T01:37:05.100Z,13.79
2016-10-29T01:38:18.201Z,13.8
2016-10-29T01:39:31.250Z,13.93
2016-10-29T01:40:44.748Z,13.88
2016-10-29T01:41:58.266Z,13.83
2016-10-29T01:43:10.698Z,13.83
2016-10-29T01:44:23.613Z,13.76
2016-10-29T01:45:37.171Z,13.85
2016-10-29T01:46:50.155Z,13.85
2016-10-29T01:48:03.681Z,13.83
2016-10-29T01:49:15.605Z,13.79
2016-10-29T01:50:27.517Z,13.82
2016-10-29T01:51:41.144Z,13.75
2016-10-29T01:52:54.208Z,13.78
2016-10-29T01:54:07.740Z,13.75
2016-10-29T01:55:20.665Z,13.82
2016-10-29T01:56:34.135Z,13.71
2016-10-29T01:57:47.163Z,13.83
2016-10-29T01:59:00.146Z,13.78
2016-10-29T02:00:13.685Z,13.82
2016-10-29T02:01:27.270Z,13.75
2016-10-29T02:02:40.782Z,13.8
2016-10-29T02:03:53.838Z,13.79
2016-10-29T02:05:07.483Z,13.8
2016-10-29T02:06:19.426Z,13.71
2016-10-29T02:07:31.935Z,13.64
2016-10-29T02:08:44.955Z,13.68
2016-10-29T02:09:57.917Z,13.68
2016-10-29T02:11:10.986Z,13.65
2016-10-29T02:12:24.514Z,13.78
2016-10-29T02:13:35.944Z,13.76
2016-10-29T02:14:49.480Z,13.78
2016-10-29T02:16:02.560Z,13.65
2016-10-29T02:17:15.551Z,13.78
2016-10-29T02:18:28.536Z,13.68
2016-10-29T02:19:40.974Z,13.73
2016-10-29T02:20:55.294Z,13.68
2016-10-29T02:22:08.298Z,13.68
2016-10-29T02:23:21.796Z,13.73
2016-10-29T02:24:34.776Z,13.8
2016-10-29T02:25:48.300Z,13.72
2016-10-29T02:27:01.792Z,13.76
2016-10-29T02:28:14.169Z,13.63
2016-10-29T02:29:27.160Z,13.72
2016-10-29T02:30:39.153Z,13.79
2016-10-29T02:31:51.597Z,13.75
2016-10-29T02:33:03.032Z,13.72
2016-10-29T02:34:16.556Z,13.58
2016-10-29T02:35:29.057Z,13.72
2016-10-29T02:36:42.553Z,13.73
2016-10-29T02:37:56.045Z,13.78
2016-10-29T02:39:08.494Z,13.79
2016-10-29T02:40:21.517Z,13.76
2016-10-29T02:41:35.080Z,13.65
2016-10-29T02:42:47.489Z,13.61
2016-10-29T02:44:00.517Z,13.64
2016-10-29T02:45:14.087Z,13.61
2016-10-29T02:46:26.559Z,13.65
2016-10-29T02:47:39.081Z,13.67
2016-10-29T02:48:52.116Z,13.63
2016-10-29T02:50:04.533Z,13.75
2016-10-29T02:51:17.608Z,13.61
2016-10-29T02:52:30.593Z,13.64
2016-10-29T02:53:43.595Z,13.71
2016-10-29T02:54:56.552Z,13.78
2016-10-29T02:56:10.004Z,13.75
2016-10-29T02:57:23.008Z,13.82
2016-10-29T02:58:35.488Z,13.83
2016-10-29T02:59:48.504Z,13.8
2016-10-29T03:01:01.998Z,13.8
2016-10-29T03:02:15.518Z,13.78
2016-10-29T03:03:27.980Z,13.78
2016-10-29T03:04:41.511Z,13.8
2016-10-29T03:05:54.600Z,13.79
2016-10-29T03:07:07.237Z,13.79
2016-10-29T03:08:20.228Z,13.72
2016-10-29T03:09:32.165Z,13.76
2016-10-29T03:10:45.149Z,13.78
2016-10-29T03:11:58.641Z,13.71
2016-10-29T03:13:12.188Z,13.75
2016-10-29T03:14:25.708Z,13.78
2016-10-29T03:15:38.708Z,13.75
2016-10-29T03:16:51.733Z,13.67
2016-10-29T03:18:04.815Z,13.71
2016-10-29T03:19:17.817Z,13.76
2016-10-29T03:20:30.314Z,13.82
2016-10-29T03:21:43.859Z,13.75
2016-10-29T03:22:56.941Z,13.72
2016-10-29T03:24:10.495Z,13.78
2016-10-29T03:25:23.561Z,13.8
2016-10-29T03:26:37.090Z,13.75
2016-10-29T03:27:50.122Z,13.65
2016-10-29T03:29:03.700Z,13.65
2016-10-29T03:30:16.181Z,13.68
2016-10-29T03:31:29.149Z,13.65
2016-10-29T03:32:42.677Z,13.63
2016-10-29T03:33:56.146Z,13.57
2016-10-29T03:35:08.642Z,13.61
2016-10-29T03:36:21.582Z,13.6
2016-10-29T03:37:34.546Z,13.63
2016-10-29T03:38:47.583Z,13.64
2016-10-29T03:40:00.597Z,13.57
2016-10-29T03:41:12.592Z,13.58
2016-10-29T03:42:26.142Z,13.57
2016-10-29T03:43:39.123Z,13.6
2016-10-29T03:44:51.647Z,13.63
2016-10-29T03:46:04.138Z,13.61
2016-10-29T03:47:16.588Z,13.51
2016-10-29T03:48:29.622Z,13.57
2016-10-29T03:49:42.590Z,13.55
2016-10-29T03:50:55.606Z,13.46
2016-10-29T03:52:08.596Z,13.55
2016-10-29T03:53:21.543Z,13.58
2016-10-29T03:54:34.652Z,13.57
2016-10-29T03:55:47.637Z,13.54
2016-10-29T03:57:00.633Z,13.54
2016-10-29T03:58:14.138Z,13.47
2016-10-29T03:59:27.113Z,13.55
2016-10-29T04:00:40.218Z,13.58
2016-10-29T04:01:53.729Z,13.57
2016-10-29T04:03:06.172Z,13.58
2016-10-29T04:04:19.796Z,13.61
2016-10-29T04:05:32.786Z,13.57
2016-10-29T04:06:45.781Z,13.46
2016-10-29T04:07:59.281Z,13.4
2016-10-29T04:09:12.224Z,13.49
2016-10-29T04:10:25.210Z,13.47
2016-10-29T04:11:38.170Z,13.46
2016-10-29T04:12:51.150Z,13.47
2016-10-29T04:14:04.750Z,13.46
2016-10-29T04:15:18.326Z,13.46
2016-10-29T04:16:30.786Z,13.36
2016-10-29T04:17:44.245Z,13.49
2016-10-29T04:18:56.671Z,13.35
2016-10-29T04:20:10.194Z,13.36
2016-10-29T04:21:23.240Z,13.35
2016-10-29T04:22:35.676Z,13.29
2016-10-29T04:23:49.292Z,13.39
2016-10-29T04:25:02.386Z,13.36
2016-10-29T04:26:15.870Z,13.36
2016-10-29T04:27:27.777Z,13.27
2016-10-29T04:28:41.232Z,13.29
2016-10-29T04:29:53.703Z,13.27
2016-10-29T04:31:07.271Z,13.27
2016-10-29T04:32:20.735Z,13.35
2016-10-29T04:33:34.325Z,13.21
2016-10-29T04:34:47.886Z,13.23
2016-10-29T04:36:00.380Z,13.21
2016-10-29T04:37:12.388Z,13.26
2016-10-29T04:38:25.892Z,13.29
2016-10-29T04:39:39.452Z,13.24
2016-10-29T04:40:52.900Z,13.27
2016-10-29T04:42:05.861Z,13.29
2016-10-29T04:43:18.345Z,13.38
2016-10-29T04:44:31.284Z,13.29
2016-10-29T04:45:44.276Z,13.23
2016-10-29T04:46:57.250Z,13.3
2016-10-29T04:48:10.776Z,13.32
2016-10-29T04:49:23.952Z,13.26
2016-10-29T04:50:36.934Z,13.3
2016-10-29T04:51:50.433Z,13.29
2016-10-29T04:53:03.421Z,13.27
2016-10-29T04:54:15.869Z,13.26
2016-10-29T04:55:28.303Z,13.21
2016-10-29T04:56:41.305Z,13.27
2016-10-29T04:57:54.300Z,13.27
2016-10-29T04:59:07.331Z,13.21
2016-10-29T05:00:19.841Z,13.24
2016-10-29T05:01:32.337Z,13.32
2016-10-29T05:02:45.853Z,13.24
2016-10-29T05:03:58.789Z,13.24
2016-10-29T05:05:12.411Z,13.23
2016-10-29T05:06:25.890Z,13.3
2016-10-29T05:07:38.883Z,13.26
2016-10-29T05:08:51.845Z,13.26
2016-10-29T05:10:04.859Z,13.29
2016-10-29T05:11:17.863Z,13.21
2016-10-29T05:12:30.938Z,13.26
2016-10-29T05:13:43.419Z,13.23
2016-10-29T05:14:57.006Z,13.16
2016-10-29T05:16:08.965Z,13.27
2016-10-29T05:17:22.521Z,13.19
2016-10-29T05:18:35.530Z,13.21
2016-10-29T05:19:48.555Z,13.24
2016-10-29T05:21:01.570Z,13.35
2016-10-29T05:22:15.071Z,13.27
2016-10-29T05:23:28.618Z,13.14
2016-10-29T05:24:42.135Z,13.21
2016-10-29T05:25:55.642Z,13.14
2016-10-29T05:27:08.088Z,13.16
2016-10-29T05:28:21.684Z,13.3
2016-10-29T05:29:34.143Z,13.3
2016-10-29T05:30:47.136Z,13.24
2016-10-29T05:31:58.584Z,13.17
2016-10-29T05:33:11.627Z,13.21
2016-10-29T05:34:25.119Z,13.14
2016-10-29T05:35:38.101Z,13.13
2016-10-29T05:36:51.618Z,13.21
2016-10-29T05:38:05.092Z,13.17
2016-10-29T05:39:18.097Z,13.16
2016-10-29T05:40:30.545Z,13.32
2016-10-29T05:41:43.527Z,13.21
2016-10-29T05:42:57.011Z,13.29
2016-10-29T05:44:10.547Z,13.29
2016-10-29T05:45:24.107Z,13.19
2016-10-29T05:46:36.548Z,13.26
2016-10-29T05:47:49.572Z,13.19
2016-10-29T05:49:02.573Z,13.26
2016-10-29T05:50:15.577Z,13.26
2016-10-29T05:51:28.089Z,13.24
2016-10-29T05:52:41.511Z,13.27
2016-10-29T05:53:53.972Z,13.24
2016-10-29T05:55:07.470Z,13.24
2016-10-29T05:56:20.476Z,13.2
2016-10-29T05:57:34.044Z,13.23
2016-10-29T05:58:47.517Z,13.17
2016-10-29T06:00:00.472Z,13.21
2016-10-29T06:01:13.984Z,13.2
2016-10-29T06:02:26.962Z,13.21
2016-10-29T06:03:39.472Z,13.26
2016-10-29T06:04:52.496Z,13.26
2016-10-29T06:06:06.142Z,13.32
2016-10-29T06:07:19.719Z,13.27
2016-10-29T06:08:32.687Z,13.23
2016-10-29T06:09:45.680Z,13.3
2016-10-29T06:10:57.607Z,13.16
2016-10-29T06:12:10.568Z,13.23
2016-10-29T06:13:24.114Z,13.19
2016-10-29T06:14:37.137Z,13.17
2016-10-29T06:15:50.186Z,13.17
2016-10-29T06:17:03.170Z,13.16
2016-10-29T06:18:16.106Z,13.3
2016-10-29T06:19:29.084Z,13.14
2016-10-29T06:20:42.656Z,13.19
2016-10-29T06:21:55.657Z,13.24
2016-10-29T06:23:08.685Z,13.27
2016-10-29T06:24:22.259Z,13.23
2016-10-29T06:25:35.324Z,13.27
2016-10-29T06:26:48.924Z,13.26
2016-10-29T06:28:01.927Z,13.21
2016-10-29T06:29:14.911Z,13.29
2016-10-29T06:30:27.921Z,13.27
2016-10-29T06:31:41.486Z,13.29
2016-10-29T06:32:55.034Z,13.32
2016-10-29T06:34:07.549Z,13.29
2016-10-29T06:35:20.561Z,13.3
2016-10-29T06:36:33.050Z,13.3
2016-10-29T06:37:46.016Z,13.24
2016-10-29T06:38:59.569Z,13.27
2016-10-29T06:40:12.553Z,13.3
2016-10-29T06:41:25.559Z,13.35
2016-10-29T06:42:39.048Z,13.36
2016-10-29T06:43:52.581Z,13.3
2016-10-29T06:45:05.559Z,13.36
2016-10-29T06:46:18.008Z,13.35
2016-10-29T06:47:30.486Z,13.32
2016-10-29T06:48:43.430Z,13.24
2016-10-29T06:49:56.407Z,13.38
2016-10-29T06:51:09.438Z,13.39
2016-10-29T06:52:22.961Z,13.32
2016-10-29T06:53:35.950Z,13.36
2016-10-29T06:54:49.499Z,13.39
2016-10-29T06:56:03.054Z,13.32
2016-10-29T06:57:15.555Z,13.3
2016-10-29T06:58:28.555Z,13.29
2016-10-29T06:59:41.083Z,13.24
2016-10-29T07:00:54.032Z,13.3
2016-10-29T07:02:06.985Z,13.3
2016-10-29T07:03:20.491Z,13.29
2016-10-29T07:04:34.014Z,13.24
2016-10-29T07:05:47.017Z,13.21
2016-10-29T07:07:00.516Z,13.26
2016-10-29T07:08:12.945Z,13.19
2016-10-29T07:09:24.920Z,13.23
2016-10-29T07:10:37.934Z,13.29
2016-10-29T07:11:51.461Z,13.16
2016-10-29T07:13:04.964Z,13.21
2016-10-29T07:14:18.501Z,13.19
2016-10-29T07:15:32.060Z,13.16
2016-10-29T07:16:45.080Z,13.17
2016-10-29T07:17:57.557Z,13.35
2016-10-29T07:19:10.008Z,13.17
2016-10-29T07:20:23.509Z,13.13
2016-10-29T07:21:36.002Z,13.17
2016-10-29T07:22:49.503Z,13.32
2016-10-29T07:24:02.450Z,13.32
2016-10-29T07:25:14.889Z,13.21
2016-10-29T07:26:28.439Z,13.17
2016-10-29T07:27:41.971Z,13.21
2016-10-29T07:28:54.442Z,13.2
2016-10-29T07:30:07.412Z,13.24
2016-10-29T07:31:20.477Z,13.19
2016-10-29T07:32:33.504Z,13.17
2016-10-29T07:33:46.499Z,13.16
2016-10-29T07:34:58.969Z,13.19
2016-10-29T07:36:11.980Z,13.23
2016-10-29T07:37:25.522Z,13.16
2016-10-29T07:38:38.549Z,13.23
2016-10-29T07:39:51.007Z,13.09
2016-10-29T07:41:04.109Z,13.2
2016-10-29T07:42:17.587Z,13.14
2016-10-29T07:43:30.615Z,13.17
2016-10-29T07:44:43.052Z,13.09
2016-10-29T07:45:56.553Z,13.14
2016-10-29T07:47:09.610Z,13.14
2016-10-29T07:48:22.579Z,13.14
2016-10-29T07:49:36.127Z,13.08
2016-10-29T07:50:49.598Z,13.11
2016-10-29T07:52:02.614Z,13.11
2016-10-29T07:53:15.008Z,13.01
2016-10-29T07:54:28.026Z,13.04
2016-10-29T07:55:40.476Z,13.01
2016-10-29T07:56:51.855Z,13.04
2016-10-29T07:58:05.393Z,13.13
2016-10-29T07:59:17.854Z,13.11
2016-10-29T08:00:30.864Z,13.13
2016-10-29T08:01:44.419Z,13.04
2016-10-29T08:02:57.910Z,13.09
2016-10-29T08:04:11.466Z,13.08
2016-10-29T08:05:23.384Z,13.11
2016-10-29T08:06:36.888Z,13.06
2016-10-29T08:07:50.476Z,13.11
2016-10-29T08:09:03.506Z,13.16
2016-10-29T08:10:17.018Z,13.13
2016-10-29T08:11:30.067Z,13.11
2016-10-29T08:12:43.044Z,13.02
2016-10-29T08:13:56.066Z,13.08
2016-10-29T08:15:09.581Z,13.08
2016-10-29T08:16:23.127Z,13.02
2016-10-29T08:17:36.049Z,13.06
2016-10-29T08:18:49.603Z,12.98
2016-10-29T08:20:03.111Z,13.06
2016-10-29T08:21:16.079Z,13.09
2016-10-29T08:22:29.581Z,13.04
2016-10-29T08:23:42.027Z,13.06
2016-10-29T08:24:55.050Z,12.96
2016-10-29T08:26:08.535Z,13.08
2016-10-29T08:27:21.572Z,13.09
2016-10-29T08:28:34.563Z,13.01
2016-10-29T08:29:47.036Z,13.11
2016-10-29T08:30:59.586Z,13.13
2016-10-29T08:32:13.099Z,13.11
2016-10-29T08:33:26.137Z,13.06
2016-10-29T08:34:39.676Z,13.11
2016-10-29T08:35:53.253Z,13.06
2016-10-29T08:37:06.242Z,13.11
2016-10-29T08:38:18.647Z,13.13
2016-10-29T08:39:32.203Z,13.16
2016-10-29T08:40:45.702Z,13.19
2016-10-29T08:41:58.203Z,13.14
2016-10-29T08:43:11.786Z,13.2
2016-10-29T08:44:25.379Z,13.14
2016-10-29T08:45:38.444Z,13.17
2016-10-29T08:46:51.995Z,13.2
2016-10-29T08:48:05.043Z,13.21
2016-10-29T08:49:18.051Z,13.24
2016-10-29T08:50:31.547Z,13.24
2016-10-29T08:51:45.126Z,13.24
2016-10-29T08:52:57.676Z,13.43
2016-10-29T08:54:11.274Z,13.58
2016-10-29T08:55:24.300Z,13.78
2016-10-29T08:56:37.329Z,13.79
2016-10-29T08:57:50.346Z,13.68
2016-10-29T08:59:03.329Z,13.72
2016-10-29T09:00:16.291Z,13.76
2016-10-29T09:01:29.943Z,13.86
2016-10-29T09:02:42.953Z,13.96
2016-10-29T09:03:55.424Z,14.01
2016-10-29T09:05:08.419Z,13.91
2016-10-29T09:06:52.589Z,14.01
2016-10-29T09:08:05.559Z,14.03
2016-10-29T09:09:19.139Z,14.16
2016-10-29T09:10:32.694Z,14.22
2016-10-29T09:11:46.271Z,14.33
2016-10-29T09:12:58.761Z,14.49
2016-10-29T09:14:12.233Z,14.69
2016-10-29T09:15:25.743Z,14.86
2016-10-29T09:16:39.336Z,14.97
2016-10-29T09:17:52.340Z,15.08
2016-10-29T09:19:05.331Z,15.1
2016-10-29T09:20:18.321Z,15.1
2016-10-29T09:21:30.768Z,15.15
2016-10-29T09:22:43.752Z,15.08
2016-10-29T09:23:56.804Z,15.12
2016-10-29T09:25:10.393Z,15.25
2016-10-29T09:26:23.374Z,15.51
2016-10-29T09:27:36.848Z,15.7
2016-10-29T09:28:49.904Z,15.76
2016-10-29T09:30:02.913Z,15.95
2016-10-29T09:31:15.401Z,16.02
2016-10-29T09:32:28.371Z,15.95
2016-10-29T09:33:41.898Z,15.88
2016-10-29T09:34:54.973Z,15.78
2016-10-29T09:36:07.488Z,15.77
2016-10-29T09:37:21.008Z,15.84
2016-10-29T09:38:34.520Z,15.81
2016-10-29T09:39:48.071Z,15.65
2016-10-29T09:41:01.631Z,15.77
2016-10-29T09:42:14.615Z,15.91
2016-10-29T09:43:28.097Z,16.09
2016-10-29T09:44:40.666Z,16.29
2016-10-29T09:45:54.192Z,16.43
2016-10-29T09:47:07.194Z,16.62
2016-10-29T09:48:20.777Z,16.8
2016-10-29T09:49:34.351Z,16.84
2016-10-29T09:50:47.830Z,17.04
2016-10-29T09:52:00.834Z,16.91
2016-10-29T09:53:13.844Z,16.74
2016-10-29T09:54:26.884Z,16.87
2016-10-29T09:55:39.366Z,17.04
2016-10-29T09:56:52.344Z,17.07
2016-10-29T09:58:05.369Z,17.22
2016-10-29T09:59:18.865Z,16.7
2016-10-29T10:00:32.424Z,16.47
2016-10-29T10:01:46.023Z,16.1
2016-10-29T10:02:59.539Z,15.99
2016-10-29T10:04:12.624Z,15.72
2016-10-29T10:05:26.165Z,15.44
2016-10-29T10:06:39.161Z,15.23
2016-10-29T10:07:51.647Z,15.11
2016-10-29T10:09:04.697Z,15.05
2016-10-29T10:10:17.158Z,15.03
2016-10-29T10:11:29.089Z,15.1
2016-10-29T10:12:42.592Z,15.12
2016-10-29T10:13:56.110Z,15.05
2016-10-29T10:15:08.045Z,15.04
2016-10-29T10:16:21.620Z,14.89
2016-10-29T10:17:34.634Z,14.87
2016-10-29T10:18:47.595Z,14.78
2016-10-29T10:20:00.655Z,14.77
2016-10-29T10:21:13.668Z,14.95
2016-10-29T10:22:27.313Z,15.08
2016-10-29T10:23:40.309Z,15.36
2016-10-29T10:24:53.338Z,15.66
2016-10-29T10:26:06.342Z,15.78
2016-10-29T10:27:18.317Z,16.08
2016-10-29T10:28:31.381Z,16.26
2016-10-29T10:29:44.380Z,16.32
2016-10-29T10:30:57.374Z,16.18
2016-10-29T10:32:09.845Z,16.17
2016-10-29T10:33:22.348Z,16.28
2016-10-29T10:34:34.791Z,16.16
2016-10-29T10:35:47.270Z,15.99
2016-10-29T10:36:59.780Z,15.98
2016-10-29T10:38:13.302Z,15.88
2016-10-29T10:39:26.257Z,15.85
2016-10-29T10:40:39.288Z,15.8
2016-10-29T10:41:52.807Z,15.65
2016-10-29T10:43:06.364Z,15.52
2016-10-29T10:44:19.374Z,15.4
2016-10-29T10:45:31.861Z,15.38
2016-10-29T10:46:44.547Z,15.48
2016-10-29T10:47:57.531Z,15.76
2016-10-29T10:49:10.575Z,15.99
2016-10-29T10:50:24.080Z,16.06
2016-10-29T10:51:37.146Z,16.06
2016-10-29T10:52:50.727Z,15.91
2016-10-29T10:54:03.703Z,15.73
2016-10-29T10:55:16.676Z,15.8
2016-10-29T10:56:29.699Z,15.76
2016-10-29T10:57:43.213Z,15.59
2016-10-29T10:58:56.721Z,15.52
2016-10-29T11:00:09.643Z,15.59
2016-10-29T11:01:22.649Z,15.68
2016-10-29T11:02:36.216Z,15.83
2016-10-29T11:03:49.704Z,15.87
2016-10-29T11:05:02.217Z,15.96
2016-10-29T11:06:15.248Z,16.02
2016-10-29T11:07:28.809Z,16
2016-10-29T11:08:42.251Z,16.21
2016-10-29T11:09:55.758Z,16.18
2016-10-29T11:11:08.769Z,16.37
2016-10-29T11:12:21.778Z,16.72
2016-10-29T11:13:34.768Z,17.04
2016-10-29T11:14:47.754Z,17.37
2016-10-29T11:15:58.629Z,17.32
2016-10-29T11:17:11.140Z,17.43
2016-10-29T11:18:24.610Z,17.68
2016-10-29T11:19:37.562Z,17.87
2016-10-29T11:20:51.139Z,17.96
2016-10-29T11:22:04.213Z,17.87
2016-10-29T11:23:17.170Z,17.87
2016-10-29T11:24:30.689Z,17.93
2016-10-29T11:25:44.274Z,17.96
2016-10-29T11:26:56.739Z,17.93
2016-10-29T11:28:10.293Z,17.9
2016-10-29T11:29:23.272Z,17.94
2016-10-29T11:30:36.816Z,18.02
2016-10-29T11:31:50.314Z,18.2
2016-10-29T11:33:02.837Z,18.23
2016-10-29T11:34:15.362Z,18.38
2016-10-29T11:35:28.427Z,18.28
2016-10-29T11:36:41.473Z,18.34
2016-10-29T11:37:53.492Z,18.45
2016-10-29T11:39:06.982Z,18.52
2016-10-29T11:40:19.966Z,18.46
2016-10-29T11:41:32.990Z,18.28
2016-10-29T11:42:46.027Z,18.23
2016-10-29T11:43:57.974Z,18.33
2016-10-29T11:45:11.503Z,18.23
2016-10-29T11:46:24.002Z,18.21
2016-10-29T11:47:36.956Z,18.15
2016-10-29T11:48:48.386Z,18.2
2016-10-29T11:50:01.408Z,18.03
2016-10-29T11:51:14.434Z,18.13
2016-10-29T11:52:27.427Z,18.46
2016-10-29T11:53:39.895Z,18.76
2016-10-29T11:54:52.917Z,18.97
2016-10-29T11:56:05.937Z,19.13
2016-10-29T11:57:19.524Z,19.08
2016-10-29T11:58:32.035Z,19.23
2016-10-29T11:59:44.009Z,19.37
2016-10-29T12:00:57.619Z,19.74
2016-10-29T12:02:09.521Z,19.87
2016-10-29T12:03:22.026Z,19.94
2016-10-29T12:04:35.175Z,19.86
2016-10-29T12:05:48.662Z,19.54
2016-10-29T12:07:01.182Z,19.32
2016-10-29T12:08:14.146Z,19.35
2016-10-29T12:09:26.056Z,19.31
2016-10-29T12:10:39.734Z,19.42
2016-10-29T12:11:52.693Z,19.57
2016-10-29T12:13:05.149Z,19.59
2016-10-29T12:14:18.665Z,19.72
2016-10-29T12:15:32.243Z,19.77
2016-10-29T12:16:45.230Z,19.84
2016-10-29T12:17:57.716Z,19.93
2016-10-29T12:19:11.268Z,19.84
2016-10-29T12:20:24.297Z,19.71
2016-10-29T12:21:36.793Z,19.81
2016-10-29T12:22:50.299Z,20.15
2016-10-29T12:24:02.812Z,20.32
2016-10-29T12:25:15.792Z,20.33
2016-10-29T12:26:28.797Z,20.17
2016-10-29T12:27:42.289Z,19.94
2016-10-29T12:28:55.271Z,19.7
2016-10-29T12:30:07.726Z,19.77
2016-10-29T12:31:20.240Z,20.04
2016-10-29T12:32:33.755Z,20.25
2016-10-29T12:33:45.741Z,20.41
2016-10-29T12:34:59.216Z,20.63
2016-10-29T12:36:12.809Z,20.27
2016-10-29T12:37:26.382Z,20.19
2016-10-29T12:38:38.824Z,19.97
2016-10-29T12:39:51.277Z,19.99
2016-10-29T12:41:04.271Z,20.18
2016-10-29T12:42:17.521Z,20.3
2016-10-29T12:43:30.543Z,20.33
2016-10-29T12:44:43.030Z,19.99
2016-10-29T12:45:55.982Z,19.89
2016-10-29T12:47:08.975Z,19.84
2016-10-29T12:48:21.980Z,19.71
2016-10-29T12:49:34.560Z,19.67
2016-10-29T12:50:46.558Z,19.78
2016-10-29T12:52:00.055Z,19.64
2016-10-29T12:53:12.525Z,19.52
2016-10-29T12:54:25.634Z,19.54
2016-10-29T12:55:38.615Z,19.64
2016-10-29T12:56:50.620Z,19.72
2016-10-29T12:58:03.128Z,19.64
2016-10-29T12:59:15.609Z,19.68
2016-10-29T13:00:29.136Z,19.72
2016-10-29T13:01:41.590Z,19.71
2016-10-29T13:02:54.089Z,19.87
2016-10-29T13:04:06.556Z,19.89
2016-10-29T13:05:19.023Z,20.02
2016-10-29T13:06:30.480Z,20.04
2016-10-29T13:07:42.971Z,20.04
2016-10-29T13:08:55.474Z,19.81
2016-10-29T13:10:08.505Z,19.53
2016-10-29T13:11:20.487Z,19.68
2016-10-29T13:12:33.446Z,19.9
2016-10-29T13:13:45.911Z,20.05
2016-10-29T13:14:59.428Z,20.09
2016-10-29T13:16:12.958Z,20.32
2016-10-29T13:17:25.362Z,20.02
2016-10-29T13:18:38.441Z,20.19
2016-10-29T13:19:51.455Z,20.52
2016-10-29T13:21:04.985Z,20.7
2016-10-29T13:22:17.961Z,20.75
2016-10-29T13:23:30.984Z,20.61
2016-10-29T13:24:43.488Z,20.48
2016-10-29T13:25:57.023Z,20.75
2016-10-29T13:27:09.455Z,20.73
2016-10-29T13:28:22.483Z,20.56
2016-10-29T13:29:36.062Z,20.53
2016-10-29T13:30:48.537Z,20.14
2016-10-29T13:32:01.577Z,20
2016-10-29T13:33:14.605Z,20.14
2016-10-29T13:34:28.210Z,20.12
2016-10-29T13:35:39.674Z,20.17
2016-10-29T13:36:52.647Z,20.29
2016-10-29T13:38:06.174Z,20.49
2016-10-29T13:39:18.659Z,20.46
2016-10-29T13:40:31.712Z,20.52
2016-10-29T13:41:44.730Z,20.22
2016-10-29T13:42:57.683Z,20.27
2016-10-29T13:44:10.163Z,20.73
2016-10-29T13:45:22.690Z,20.97
2016-10-29T13:46:34.612Z,20.77
2016-10-29T13:47:48.182Z,20.73
2016-10-29T13:49:01.233Z,20.64
2016-10-29T13:50:14.322Z,20.49
2016-10-29T13:51:26.247Z,20.25
2016-10-29T13:52:39.278Z,20.14
2016-10-29T13:53:52.276Z,19.59
2016-10-29T13:55:05.239Z,19.57
2016-10-29T13:56:18.252Z,19.3
2016-10-29T13:57:31.209Z,19.53
2016-10-29T13:58:44.170Z,19.75
2016-10-29T13:59:56.696Z,19.62
2016-10-29T14:01:10.215Z,19.75
2016-10-29T14:02:22.657Z,19.86
2016-10-29T14:03:36.241Z,19.97
2016-10-29T14:04:49.262Z,19.79
2016-10-29T14:06:01.763Z,19.7
2016-10-29T14:07:15.272Z,19.68
2016-10-29T14:08:28.766Z,19.57
2016-10-29T14:09:42.317Z,19.62
2016-10-29T14:10:54.823Z,19.23
2016-10-29T14:12:08.334Z,19.26
2016-10-29T14:13:21.354Z,19.5
2016-10-29T14:14:34.880Z,19.62
2016-10-29T14:15:48.835Z,19.45
2016-10-29T14:17:02.325Z,19.44
2016-10-29T14:18:15.842Z,19.72
2016-10-29T14:19:28.942Z,19.56
2016-10-29T14:20:41.397Z,19.75
2016-10-29T14:21:54.922Z,19.7
2016-10-29T14:23:08.452Z,19.6
2016-10-29T14:24:21.488Z,19.71
2016-10-29T14:25:34.993Z,19.59
2016-10-29T14:26:47.951Z,19.49
2016-10-29T14:28:00.951Z,19.59
2016-10-29T14:29:13.953Z,19.75
2016-10-29T14:30:27.462Z,19.62
2016-10-29T14:31:40.461Z,19.71
2016-10-29T14:32:52.997Z,19.75
2016-10-29T14:34:04.926Z,19.79
2016-10-29T14:35:18.492Z,19.84
2016-10-29T14:36:30.929Z,19.79
2016-10-29T14:37:43.384Z,19.84
2016-10-29T14:38:56.851Z,20.04
2016-10-29T14:40:10.401Z,20.04
2016-10-29T14:41:23.448Z,20.07
2016-10-29T14:42:37.495Z,19.92
2016-10-29T14:43:49.991Z,19.97
2016-10-29T14:45:03.079Z,20.08
2016-10-29T14:46:15.573Z,20.15
2016-10-29T14:47:29.117Z,20.14
2016-10-29T14:48:42.138Z,20.11
2016-10-29T14:50:26.258Z,20
2016-10-29T14:51:39.789Z,19.84
2016-10-29T14:52:52.708Z,19.82
2016-10-29T14:54:06.266Z,19.7
2016-10-29T14:55:19.873Z,19.77
2016-10-29T14:56:32.320Z,19.79
2016-10-29T14:57:45.298Z,19.77
2016-10-29T14:58:57.283Z,19.93
2016-10-29T15:00:10.259Z,20.14
2016-10-29T15:01:23.220Z,20.29
2016-10-29T15:02:36.821Z,20.29
2016-10-29T15:03:50.329Z,19.82
2016-10-29T15:05:02.878Z,19.62
2016-10-29T15:06:15.924Z,19.79
2016-10-29T15:07:28.932Z,20
2016-10-29T15:08:41.439Z,20.11
2016-10-29T15:10:25.041Z,20.14
2016-10-29T15:11:37.592Z,19.94
2016-10-29T15:12:50.545Z,20.08
2016-10-29T15:14:03.024Z,20.17
2016-10-29T15:15:16.024Z,19.9
2016-10-29T15:16:29.090Z,19.79
2016-10-29T15:17:42.639Z,19.87
2016-10-29T15:18:55.650Z,19.84
2016-10-29T15:20:08.223Z,19.79
2016-10-29T15:21:20.706Z,19.89
2016-10-29T15:22:33.783Z,19.97
2016-10-29T15:23:46.828Z,20.09
2016-10-29T15:24:59.786Z,20.14
2016-10-29T15:26:12.225Z,20.19
2016-10-29T15:27:25.252Z,20.19
2016-10-29T15:28:38.231Z,20.17
2016-10-29T15:29:51.264Z,20.19
2016-10-29T15:31:04.730Z,20.34
2016-10-29T15:32:18.260Z,20.37
2016-10-29T15:33:31.780Z,20.52
2016-10-29T15:34:45.336Z,20.44
2016-10-29T15:35:57.841Z,20.25
2016-10-29T15:37:11.370Z,20.19
2016-10-29T15:38:23.855Z,20.42
2016-10-29T15:39:36.316Z,20.49
2016-10-29T15:40:49.314Z,20.32
2016-10-29T15:42:01.246Z,20.33
2016-10-29T15:43:13.720Z,20.3
2016-10-29T15:44:26.729Z,20.15
2016-10-29T15:45:39.796Z,20.12
2016-10-29T15:46:52.777Z,20.3